createdAt,value
2023-01-20T00:01:05.396Z,0.20
2023-01-20T00:03:32.781Z,0.20
2023-01-20T00:06:00.027Z,0.20
2023-01-20T00:08:27.481Z,0.20
2023-01-20T00:10:55.103Z,0.10
2023-01-20T00:13:22.655Z,0.10
2023-01-20T00:15:49.880Z,0.10
2023-01-20T00:18:17.156Z,0.10
2023-01-20T00:20:44.474Z,0.10
2023-01-20T00:23:11.768Z,0.10
2023-01-20T00:25:39.027Z,0.00
2023-01-20T00:28:06.289Z,0.10
2023-01-20T00:30:34.334Z,0.10
2023-01-20T00:33:01.635Z,0.00
2023-01-20T00:35:28.794Z,0.10
2023-01-20T00:37:55.994Z,0.10
2023-01-20T00:40:23.168Z,0.10
2023-01-20T00:42:50.571Z,0.00
2023-01-20T00:45:18.052Z,-0.10
2023-01-20T00:47:45.381Z,-0.10
2023-01-20T00:50:13.027Z,-0.10
2023-01-20T00:52:40.374Z,0.00
2023-01-20T00:55:07.973Z,0.00
2023-01-20T00:57:35.190Z,0.00
2023-01-20T01:00:02.517Z,0.00
2023-01-20T01:02:29.890Z,0.10
2023-01-20T01:04:57.197Z,0.10
2023-01-20T01:07:24.394Z,0.00
2023-01-20T01:09:51.723Z,0.00
2023-01-20T01:12:19.059Z,0.00
2023-01-20T01:14:46.308Z,0.10
2023-01-20T01:17:13.551Z,0.10
2023-01-20T01:19:40.904Z,0.00
2023-01-20T01:22:08.259Z,0.00
2023-01-20T01:24:35.516Z,0.00
2023-01-20T01:27:04.584Z,0.00
2023-01-20T01:29:31.758Z,-0.10
2023-01-20T01:31:59.182Z,-0.10
2023-01-20T01:34:26.921Z,-0.10
2023-01-20T01:36:54.206Z,-0.10
2023-01-20T01:39:21.515Z,-0.10
2023-01-20T01:41:49.080Z,-0.10
2023-01-20T01:44:16.865Z,0.00
2023-01-20T01:46:44.473Z,0.00
2023-01-20T01:49:29.235Z,-0.10
2023-01-20T01:51:59.761Z,-0.10
2023-01-20T01:54:32.975Z,-0.20
2023-01-20T01:57:00.977Z,-0.20
2023-01-20T01:59:28.461Z,-0.10
2023-01-20T02:01:56.251Z,-0.10
2023-01-20T02:04:26.308Z,-0.10
2023-01-20T02:07:15.784Z,-0.10
2023-01-20T02:09:43.055Z,-0.20
2023-01-20T02:12:15.729Z,-0.20
2023-01-20T02:14:47.550Z,-0.10
2023-01-20T02:17:30.161Z,-0.10
2023-01-20T02:19:58.497Z,-0.10
2023-01-20T02:22:44.744Z,0.00
2023-01-20T02:25:31.123Z,0.00
2023-01-20T02:28:21.781Z,0.10
2023-01-20T02:31:19.968Z,0.10
2023-01-20T02:34:21.081Z,0.10
2023-01-20T02:36:56.735Z,0.10
2023-01-20T02:39:29.077Z,0.00
2023-01-20T02:41:57.420Z,-0.10
2023-01-20T02:44:25.850Z,-0.10
2023-01-20T02:47:02.775Z,0.00
2023-01-20T02:49:36.973Z,-0.10
2023-01-20T02:52:12.453Z,-0.10
2023-01-20T02:54:44.931Z,-0.10
2023-01-20T02:57:17.692Z,0.00
2023-01-20T02:59:50.846Z,0.10
2023-01-20T03:02:22.941Z,0.10
2023-01-20T03:04:57.241Z,0.10
2023-01-20T03:07:27.821Z,0.10
2023-01-20T03:09:58.565Z,0.10
2023-01-20T03:12:35.199Z,0.00
2023-01-20T03:15:03.171Z,0.10
2023-01-20T03:17:30.659Z,0.10
2023-01-20T03:19:57.930Z,0.00
2023-01-20T03:22:25.315Z,0.00
2023-01-20T03:24:54.399Z,0.00
2023-01-20T03:27:21.633Z,-0.10
2023-01-20T03:29:49.031Z,-0.10
2023-01-20T03:32:16.494Z,-0.20
2023-01-20T03:34:44.425Z,-0.20
2023-01-20T03:37:13.141Z,-0.20
2023-01-20T03:39:40.670Z,-0.20
2023-01-20T03:42:11.304Z,-0.30
2023-01-20T03:44:39.682Z,-0.30
2023-01-20T03:47:31.310Z,-0.20
2023-01-20T03:50:10.362Z,-0.20
2023-01-20T03:52:58.094Z,-0.30
2023-01-20T03:55:34.476Z,-0.30
2023-01-20T03:58:07.900Z,-0.30
2023-01-20T04:00:39.890Z,-0.20
2023-01-20T04:03:13.033Z,-0.20
2023-01-20T04:05:41.547Z,-0.20
2023-01-20T04:08:10.648Z,-0.20
2023-01-20T04:10:41.198Z,-0.10
2023-01-20T04:13:09.011Z,-0.10
2023-01-20T04:15:41.324Z,-0.10
2023-01-20T04:18:15.250Z,-0.10
2023-01-20T04:20:45.215Z,-0.10
2023-01-20T04:23:24.901Z,-0.10
2023-01-20T04:25:52.206Z,-0.20
2023-01-20T04:28:19.401Z,-0.20
2023-01-20T04:30:46.904Z,-0.30
2023-01-20T04:33:14.206Z,-0.30
2023-01-20T04:35:41.571Z,-0.40
2023-01-20T04:38:08.943Z,-0.40
2023-01-20T04:40:36.273Z,-0.40
2023-01-20T04:43:03.973Z,-0.40
2023-01-20T04:45:31.252Z,-0.50
2023-01-20T04:47:58.652Z,-0.40
2023-01-20T04:50:26.023Z,-0.50
2023-01-20T04:52:56.337Z,-0.50
2023-01-20T04:55:23.627Z,-0.50
2023-01-20T04:57:50.928Z,-0.50
2023-01-20T05:00:20.441Z,-0.50
2023-01-20T05:02:47.820Z,-0.50
2023-01-20T05:05:15.841Z,-0.50
2023-01-20T05:07:43.369Z,-0.50
2023-01-20T05:10:13.170Z,-0.50
2023-01-20T05:12:41.428Z,-0.50
2023-01-20T05:15:09.059Z,-0.50
2023-01-20T05:17:36.536Z,-0.50
2023-01-20T05:20:04.519Z,-0.50
2023-01-20T05:22:33.457Z,-0.50
2023-01-20T05:25:00.731Z,-0.60
2023-01-20T05:27:27.950Z,-0.50
2023-01-20T05:29:55.125Z,-0.50
2023-01-20T05:32:22.445Z,-0.50
2023-01-20T05:34:49.714Z,-0.60
2023-01-20T05:37:18.341Z,-0.60
2023-01-20T05:39:45.824Z,-0.50
2023-01-20T05:42:13.202Z,-0.60
2023-01-20T05:44:40.419Z,-0.60
2023-01-20T05:47:08.065Z,-0.60
2023-01-20T05:49:35.345Z,-0.60
2023-01-20T05:52:02.641Z,-0.60
2023-01-20T05:54:30.000Z,-0.60
2023-01-20T05:56:57.117Z,-0.60
2023-01-20T05:59:24.632Z,-0.70
2023-01-20T06:01:51.823Z,-0.60
2023-01-20T06:04:19.469Z,-0.70
2023-01-20T06:06:46.738Z,-0.70
2023-01-20T06:09:14.848Z,-0.70
2023-01-20T06:11:42.235Z,-0.70
2023-01-20T06:14:09.600Z,-0.70
2023-01-20T06:16:36.949Z,-0.70
2023-01-20T06:19:04.397Z,-0.70
2023-01-20T06:21:31.723Z,-0.70
2023-01-20T06:23:58.960Z,-0.70
2023-01-20T06:26:26.212Z,-0.70
2023-01-20T06:28:58.107Z,-0.80
2023-01-20T06:31:25.668Z,-0.80
2023-01-20T06:33:54.499Z,-0.80
2023-01-20T06:36:21.953Z,-0.90
2023-01-20T06:38:51.273Z,-0.90
2023-01-20T06:41:19.619Z,-0.90
2023-01-20T06:43:47.247Z,-0.80
2023-01-20T06:46:16.129Z,-0.80
2023-01-20T06:48:44.760Z,-0.80
2023-01-20T06:51:15.171Z,-0.80
2023-01-20T06:53:42.899Z,-0.80
2023-01-20T06:56:12.089Z,-0.80
2023-01-20T06:58:40.031Z,-0.80
2023-01-20T07:01:11.065Z,-0.80
2023-01-20T07:03:38.505Z,-0.80
2023-01-20T07:06:15.028Z,-0.70
2023-01-20T07:08:44.722Z,-0.70
2023-01-20T07:11:11.975Z,-0.80
2023-01-20T07:13:39.300Z,-0.70
2023-01-20T07:16:08.902Z,-0.80
2023-01-20T07:18:38.607Z,-0.70
2023-01-20T07:21:06.459Z,-0.70
2023-01-20T07:23:34.139Z,-0.70
2023-01-20T07:26:04.404Z,-0.60
2023-01-20T07:28:33.279Z,-0.60
2023-01-20T07:31:10.842Z,-0.50
2023-01-20T07:33:38.487Z,-0.50
2023-01-20T07:36:07.144Z,-0.40
2023-01-20T07:38:35.336Z,-0.40
2023-01-20T07:41:06.760Z,-0.30
2023-01-20T07:43:34.119Z,-0.20
2023-01-20T07:46:03.911Z,-0.10
2023-01-20T07:48:32.874Z,0.00
2023-01-20T07:51:03.289Z,0.10
2023-01-20T07:53:32.453Z,0.20
2023-01-20T07:56:02.560Z,0.20
2023-01-20T07:58:30.079Z,0.30
2023-01-20T08:00:57.553Z,0.30
2023-01-20T08:03:27.307Z,0.40
2023-01-20T08:05:54.694Z,0.50
2023-01-20T08:08:23.025Z,0.50
2023-01-20T08:10:54.962Z,0.60
2023-01-20T08:13:22.314Z,0.60
2023-01-20T08:15:49.582Z,0.60
2023-01-20T08:18:17.108Z,0.70
2023-01-20T08:20:44.629Z,0.70
2023-01-20T08:23:11.919Z,0.60
2023-01-20T08:25:39.134Z,0.60
2023-01-20T08:28:06.545Z,0.60
2023-01-20T08:30:34.138Z,0.50
2023-01-20T08:33:01.647Z,0.60
2023-01-20T08:35:29.009Z,0.60
2023-01-20T08:37:56.380Z,0.60
2023-01-20T08:40:23.768Z,0.70
2023-01-20T08:42:50.974Z,0.70
2023-01-20T08:45:18.228Z,0.70
2023-01-20T08:47:46.300Z,0.80
2023-01-20T08:50:16.567Z,0.70
2023-01-20T08:52:44.033Z,0.70
2023-01-20T08:55:12.108Z,0.70
2023-01-20T08:57:39.604Z,0.60
2023-01-20T09:00:09.395Z,0.60
2023-01-20T09:02:38.015Z,0.60
2023-01-20T09:05:05.831Z,0.70
2023-01-20T09:07:33.187Z,0.70
2023-01-20T09:10:00.448Z,0.80
2023-01-20T09:12:27.692Z,0.90
2023-01-20T09:14:54.861Z,1.00
2023-01-20T09:17:22.121Z,1.00
2023-01-20T09:19:49.556Z,1.10
2023-01-20T09:22:16.882Z,1.10
2023-01-20T09:24:44.158Z,1.10
2023-01-20T09:27:11.442Z,1.10
2023-01-20T09:29:38.658Z,1.20
2023-01-20T09:32:06.090Z,1.10
2023-01-20T09:34:34.498Z,1.20
2023-01-20T09:37:22.948Z,1.30
2023-01-20T09:40:10.371Z,1.30
2023-01-20T09:43:29.627Z,1.20
2023-01-20T09:46:10.680Z,1.30
2023-01-20T09:49:10.172Z,1.30
2023-01-20T09:52:09.610Z,1.30
2023-01-20T09:54:45.487Z,1.30
2023-01-20T09:57:14.280Z,1.40
2023-01-20T09:59:50.227Z,1.40
2023-01-20T10:02:24.113Z,1.60
2023-01-20T10:04:58.641Z,1.70
2023-01-20T10:07:26.953Z,1.80
2023-01-20T10:09:57.668Z,1.90
2023-01-20T10:12:33.804Z,1.90
2023-01-20T10:15:07.613Z,2.00
2023-01-20T10:17:40.873Z,2.00
2023-01-20T10:20:14.817Z,2.00
2023-01-20T10:22:56.222Z,2.10
2023-01-20T10:25:38.880Z,2.20
2023-01-20T10:28:14.474Z,2.30
2023-01-20T10:30:43.252Z,2.20
2023-01-20T10:33:14.858Z,2.10
2023-01-20T10:35:47.733Z,2.20
2023-01-20T10:38:36.913Z,2.10
2023-01-20T10:41:16.713Z,2.20
2023-01-20T10:43:45.342Z,2.20
2023-01-20T10:46:52.926Z,2.30
2023-01-20T10:49:41.492Z,2.40
2023-01-20T10:52:15.739Z,2.40
2023-01-20T10:55:03.313Z,2.40
2023-01-20T10:57:30.933Z,2.50
2023-01-20T11:00:01.966Z,2.40
2023-01-20T11:02:35.195Z,2.40
2023-01-20T11:05:03.710Z,2.30
2023-01-20T11:07:33.803Z,2.40
2023-01-20T11:10:14.699Z,2.40
2023-01-20T11:12:44.665Z,2.40
2023-01-20T11:15:18.009Z,2.40
2023-01-20T11:17:46.061Z,2.30
2023-01-20T11:20:22.728Z,2.30
2023-01-20T11:22:50.916Z,2.40
2023-01-20T11:25:30.452Z,2.30
2023-01-20T11:27:58.891Z,2.20
2023-01-20T11:30:31.285Z,2.20
2023-01-20T11:33:21.498Z,2.20
2023-01-20T11:36:19.035Z,2.10
2023-01-20T11:38:49.080Z,2.10
2023-01-20T11:41:32.298Z,2.00
2023-01-20T11:44:01.345Z,2.10
2023-01-20T11:46:32.903Z,2.00
2023-01-20T11:49:19.514Z,2.10
2023-01-20T11:51:49.981Z,2.10
2023-01-20T11:54:23.394Z,2.10
2023-01-20T11:56:56.322Z,2.20
2023-01-20T11:59:30.572Z,2.20
2023-01-20T12:02:21.365Z,2.30
2023-01-20T12:05:13.081Z,2.30
2023-01-20T12:07:46.242Z,2.30
2023-01-20T12:10:34.591Z,2.20
2023-01-20T12:13:09.303Z,2.30
2023-01-20T12:15:43.945Z,2.30
2023-01-20T12:18:30.948Z,2.30
2023-01-20T12:21:08.397Z,2.30
2023-01-20T12:23:51.082Z,2.30
2023-01-20T12:26:22.481Z,2.40
2023-01-20T12:29:05.312Z,2.30
2023-01-20T12:31:33.736Z,2.40
2023-01-20T12:34:06.558Z,2.30
2023-01-20T12:36:50.222Z,2.30
2023-01-20T12:39:40.963Z,2.30
2023-01-20T12:42:32.031Z,2.30
2023-01-20T12:45:15.698Z,2.30
2023-01-20T12:48:03.212Z,2.20
2023-01-20T12:50:58.294Z,2.20
2023-01-20T12:53:30.553Z,2.30
2023-01-20T12:56:34.039Z,2.30
2023-01-20T12:59:17.376Z,2.40
2023-01-20T13:02:01.071Z,2.40
2023-01-20T13:04:55.380Z,2.50
2023-01-20T13:07:23.335Z,2.50
2023-01-20T13:10:03.867Z,2.50
2023-01-20T13:12:43.298Z,2.50
2023-01-20T13:15:14.666Z,2.40
2023-01-20T13:17:57.926Z,2.40
2023-01-20T13:20:29.167Z,2.50
2023-01-20T13:22:58.840Z,2.50
2023-01-20T13:25:27.446Z,2.50
2023-01-20T13:27:55.778Z,2.60
2023-01-20T13:30:48.535Z,2.60
2023-01-20T13:33:29.706Z,2.60
2023-01-20T13:36:00.337Z,2.60
2023-01-20T13:38:33.352Z,2.80
2023-01-20T13:41:03.743Z,2.80
2023-01-20T13:43:32.267Z,2.80
2023-01-20T13:46:07.152Z,2.80
2023-01-20T13:48:36.706Z,2.80
2023-01-20T13:51:29.885Z,2.80
2023-01-20T13:54:25.779Z,2.80
2023-01-20T13:57:13.589Z,2.70
2023-01-20T13:59:40.957Z,2.70
2023-01-20T14:02:18.426Z,2.80
2023-01-20T14:04:46.950Z,2.80
2023-01-20T14:07:27.906Z,2.70
2023-01-20T14:09:58.443Z,2.80
2023-01-20T14:12:26.645Z,2.80
2023-01-20T14:14:54.732Z,2.80
2023-01-20T14:17:25.055Z,2.80
2023-01-20T14:19:55.129Z,2.80
2023-01-20T14:22:25.940Z,2.80
2023-01-20T14:24:57.798Z,2.70
2023-01-20T14:27:28.529Z,2.70
2023-01-20T14:30:00.653Z,2.70
2023-01-20T14:32:32.642Z,2.70
2023-01-20T14:35:01.957Z,2.70
2023-01-20T14:37:31.543Z,2.60
2023-01-20T14:40:08.563Z,2.50
2023-01-20T14:42:38.772Z,2.60
2023-01-20T14:45:20.078Z,2.50
2023-01-20T14:47:48.797Z,2.40
2023-01-20T14:50:18.898Z,2.40
2023-01-20T14:52:46.949Z,2.40
2023-01-20T14:55:35.951Z,2.40
2023-01-20T14:58:15.434Z,2.40
2023-01-20T15:00:45.487Z,2.40
2023-01-20T15:03:14.639Z,2.30
2023-01-20T15:06:03.863Z,2.20
2023-01-20T15:08:35.010Z,2.20
2023-01-20T15:11:10.314Z,2.10
2023-01-20T15:13:39.604Z,2.10
2023-01-20T15:16:24.331Z,2.00
2023-01-20T15:19:12.146Z,1.90
2023-01-20T15:21:46.327Z,1.90
2023-01-20T15:24:18.199Z,1.80
2023-01-20T15:26:47.226Z,1.70
2023-01-20T15:29:31.715Z,1.60
2023-01-20T15:32:06.583Z,1.60
2023-01-20T15:34:34.517Z,1.50
2023-01-20T15:37:02.296Z,1.50
2023-01-20T15:39:31.055Z,1.40
2023-01-20T15:41:58.738Z,1.40
2023-01-20T15:44:27.262Z,1.40
2023-01-20T15:46:57.708Z,1.30
2023-01-20T15:49:25.729Z,1.30
2023-01-20T15:51:53.761Z,1.30
2023-01-20T15:54:21.447Z,1.30
2023-01-20T15:56:49.203Z,1.30
2023-01-20T15:59:20.378Z,1.20
2023-01-20T16:01:50.504Z,1.20
2023-01-20T16:04:18.681Z,1.10
2023-01-20T16:06:46.196Z,1.00
2023-01-20T16:09:21.551Z,1.00
2023-01-20T16:11:49.435Z,0.90
2023-01-20T16:14:16.742Z,0.90
2023-01-20T16:16:44.689Z,0.90
2023-01-20T16:19:15.378Z,0.90
2023-01-20T16:21:45.359Z,0.90
2023-01-20T16:24:14.007Z,0.90
2023-01-20T16:26:44.190Z,0.80
2023-01-20T16:29:11.599Z,0.80
2023-01-20T16:31:39.357Z,0.80
2023-01-20T16:34:08.162Z,0.80
2023-01-20T16:36:35.741Z,0.70
2023-01-20T16:39:03.164Z,0.70
2023-01-20T16:41:31.072Z,0.70
2023-01-20T16:43:59.104Z,0.70
2023-01-20T16:46:29.314Z,0.70
2023-01-20T16:49:02.181Z,0.60
2023-01-20T16:51:31.032Z,0.60
2023-01-20T16:53:59.214Z,0.60
2023-01-20T16:56:30.263Z,0.60
2023-01-20T16:59:01.618Z,0.50
2023-01-20T17:01:30.783Z,0.50
2023-01-20T17:03:59.846Z,0.50
2023-01-20T17:06:30.689Z,0.50
2023-01-20T17:09:00.910Z,0.40
2023-01-20T17:11:30.504Z,0.40
2023-01-20T17:13:58.897Z,0.40
2023-01-20T17:16:26.646Z,0.30
2023-01-20T17:18:55.674Z,0.30
2023-01-20T17:21:24.468Z,0.30
2023-01-20T17:23:56.190Z,0.20
2023-01-20T17:26:24.874Z,0.30
2023-01-20T17:29:03.339Z,0.30
2023-01-20T17:31:35.766Z,0.30
2023-01-20T17:34:05.317Z,0.20
2023-01-20T17:36:35.123Z,0.20
2023-01-20T17:39:04.225Z,0.20
2023-01-20T17:41:31.945Z,0.10
2023-01-20T17:43:59.158Z,0.10
2023-01-20T17:46:29.674Z,0.10
2023-01-20T17:48:58.580Z,0.10
2023-01-20T17:51:28.820Z,0.00
2023-01-20T17:53:58.072Z,0.00
2023-01-20T17:56:26.267Z,-0.10
2023-01-20T17:58:54.278Z,-0.10
2023-01-20T18:01:24.906Z,-0.10
2023-01-20T18:03:54.594Z,-0.20
2023-01-20T18:06:24.181Z,-0.20
2023-01-20T18:08:52.802Z,-0.20
2023-01-20T18:11:22.029Z,-0.20
2023-01-20T18:13:52.438Z,-0.20
2023-01-20T18:16:22.446Z,-0.20
2023-01-20T18:18:50.749Z,-0.20
2023-01-20T18:21:21.980Z,-0.30
2023-01-20T18:23:50.337Z,-0.30
2023-01-20T18:26:21.497Z,-0.30
2023-01-20T18:28:49.636Z,-0.30
2023-01-20T18:31:19.911Z,-0.30
2023-01-20T18:33:52.455Z,-0.30
2023-01-20T18:36:24.353Z,-0.30
2023-01-20T18:38:53.532Z,-0.30
2023-01-20T18:41:21.877Z,-0.30
2023-01-20T18:43:49.752Z,-0.30
2023-01-20T18:46:17.553Z,-0.30
2023-01-20T18:48:46.750Z,-0.30
2023-01-20T18:51:16.606Z,-0.30
2023-01-20T18:53:45.947Z,-0.30
2023-01-20T18:56:15.694Z,-0.30
2023-01-20T18:58:47.295Z,-0.40
2023-01-20T19:01:18.361Z,-0.40
2023-01-20T19:03:47.163Z,-0.40
2023-01-20T19:06:18.166Z,-0.50
2023-01-20T19:08:48.475Z,-0.50
2023-01-20T19:11:19.605Z,-0.60
2023-01-20T19:13:50.111Z,-0.60
2023-01-20T19:16:19.420Z,-0.70
2023-01-20T19:18:53.003Z,-0.70
2023-01-20T19:21:21.154Z,-0.60
2023-01-20T19:23:51.704Z,-0.60
2023-01-20T19:26:21.139Z,-0.70
2023-01-20T19:28:55.818Z,-0.70
2023-01-20T19:31:24.159Z,-0.70
2023-01-20T19:33:52.531Z,-0.70
2023-01-20T19:36:21.268Z,-0.70
2023-01-20T19:38:49.180Z,-0.70
2023-01-20T19:41:19.416Z,-0.70
2023-01-20T19:43:47.710Z,-0.70
2023-01-20T19:46:20.569Z,-0.70
2023-01-20T19:48:48.933Z,-0.70
2023-01-20T19:51:17.313Z,-0.80
2023-01-20T19:53:45.432Z,-0.80
2023-01-20T19:56:17.434Z,-0.80
2023-01-20T19:58:46.873Z,-0.80
2023-01-20T20:01:20.777Z,-0.90
2023-01-20T20:03:49.728Z,-0.90
2023-01-20T20:06:25.818Z,-0.90
2023-01-20T20:08:59.475Z,-0.90
2023-01-20T20:11:28.994Z,-1.00
2023-01-20T20:13:57.856Z,-1.00
2023-01-20T20:16:27.560Z,-1.00
2023-01-20T20:18:56.261Z,-1.10
2023-01-20T20:21:26.148Z,-1.10
2023-01-20T20:23:57.087Z,-1.10
2023-01-20T20:26:28.414Z,-1.10
2023-01-20T20:28:56.138Z,-1.10
2023-01-20T20:31:29.580Z,-1.10
2023-01-20T20:33:59.697Z,-1.10
2023-01-20T20:36:29.828Z,-1.10
2023-01-20T20:38:59.212Z,-1.00
2023-01-20T20:41:29.344Z,-1.00
2023-01-20T20:43:58.488Z,-1.00
2023-01-20T20:46:27.578Z,-1.00
2023-01-20T20:48:59.694Z,-1.00
2023-01-20T20:51:31.354Z,-1.00
2023-01-20T20:54:01.680Z,-1.00
2023-01-20T20:56:33.739Z,-1.10
2023-01-20T20:59:03.456Z,-1.10
2023-01-20T21:01:34.226Z,-1.10
2023-01-20T21:04:03.725Z,-1.10
2023-01-20T21:06:31.787Z,-1.10
2023-01-20T21:09:00.460Z,-1.20
2023-01-20T21:11:29.288Z,-1.30
2023-01-20T21:13:57.220Z,-1.30
2023-01-20T21:16:25.858Z,-1.30
2023-01-20T21:18:56.438Z,-1.30
2023-01-20T21:21:25.232Z,-1.30
2023-01-20T21:23:55.133Z,-1.30
2023-01-20T21:26:25.905Z,-1.30
2023-01-20T21:28:55.123Z,-1.40
2023-01-20T21:31:27.013Z,-1.40
2023-01-20T21:33:58.638Z,-1.40
2023-01-20T21:36:27.030Z,-1.40
2023-01-20T21:38:55.468Z,-1.40
2023-01-20T21:41:23.168Z,-1.50
2023-01-20T21:44:11.090Z,-1.60
2023-01-20T21:46:40.589Z,-1.50
2023-01-20T21:49:29.263Z,-1.60
2023-01-20T21:52:16.796Z,-1.60
2023-01-20T21:54:45.755Z,-1.60
2023-01-20T21:57:14.469Z,-1.70
2023-01-20T21:59:42.523Z,-1.80
2023-01-20T22:02:12.925Z,-1.80
2023-01-20T22:04:41.121Z,-1.80
2023-01-20T22:07:08.834Z,-1.70
2023-01-20T22:09:36.120Z,-1.70
2023-01-20T22:12:04.250Z,-1.80
2023-01-20T22:14:33.506Z,-1.90
2023-01-20T22:17:01.329Z,-1.90
2023-01-20T22:19:29.298Z,-1.90
2023-01-20T22:21:57.053Z,-1.90
2023-01-20T22:24:24.799Z,-1.90
2023-01-20T22:26:52.384Z,-2.00
2023-01-20T22:29:20.997Z,-2.00
2023-01-20T22:31:52.642Z,-2.00
2023-01-20T22:34:21.010Z,-2.00
2023-01-20T22:36:48.762Z,-2.00
2023-01-20T22:39:16.573Z,-2.00
2023-01-20T22:41:44.270Z,-2.10
2023-01-20T22:44:11.933Z,-2.00
2023-01-20T22:46:39.812Z,-2.00
2023-01-20T22:49:07.720Z,-2.10
2023-01-20T22:51:35.648Z,-2.10
2023-01-20T22:54:03.274Z,-2.10
2023-01-20T22:56:32.500Z,-2.10
2023-01-20T22:59:00.943Z,-2.10
2023-01-20T23:01:33.114Z,-2.10
2023-01-20T23:04:02.881Z,-2.10
2023-01-20T23:06:34.944Z,-2.10
2023-01-20T23:09:07.208Z,-2.20
2023-01-20T23:11:36.538Z,-2.20
2023-01-20T23:14:04.635Z,-2.20
2023-01-20T23:16:32.065Z,-2.30
2023-01-20T23:18:59.794Z,-2.20
2023-01-20T23:21:27.377Z,-2.20
2023-01-20T23:23:55.196Z,-2.30
2023-01-20T23:26:25.541Z,-2.30
2023-01-20T23:28:54.555Z,-2.30
2023-01-20T23:31:24.331Z,-2.30
2023-01-20T23:33:53.613Z,-2.30
2023-01-20T23:36:24.715Z,-2.40
2023-01-20T23:38:55.367Z,-2.40
2023-01-20T23:41:23.250Z,-2.30
2023-01-20T23:43:50.943Z,-2.40
2023-01-20T23:46:18.302Z,-2.40
2023-01-20T23:48:47.099Z,-2.50
2023-01-20T23:51:15.561Z,-2.50
2023-01-20T23:53:43.264Z,-2.60
2023-01-20T23:56:15.279Z,-2.60
2023-01-20T23:58:43.549Z,-2.60
